sensor_id;sensor_type;location;lat;lon;timestamp;P1;durP1;ratioP1;P2;durP2;ratioP2
77748;SDS011;66938;52.084;5.228;2024-02-23T00:01:01;6.5;;;1.4;;
77748;SDS011;66938;52.084;5.228;2024-02-23T00:02:37;8.2;;;1.5;;
77748;SDS011;66938;52.084;5.228;2024-02-23T00:05:50;6.3;;;1.7;;
77748;SDS011;66938;52.084;5.228;2024-02-23T00:07:26;10.6;;;1.9;;
77748;SDS011;66938;52.084;5.228;2024-02-23T00:09:02;11.1;;;1.8;;
77748;SDS011;66938;52.084;5.228;2024-02-23T00:10:38;11.6;;;2.21;;
77748;SDS011;66938;52.084;5.228;2024-02-23T00:13:50;8.0;;;2.0;;
77748;SDS011;66938;52.084;5.228;2024-02-23T00:15:26;11.9;;;2.21;;
77748;SDS011;66938;52.084;5.228;2024-02-23T00:17:03;13.4;;;2.21;;
77748;SDS011;66938;52.084;5.228;2024-02-23T00:20:15;8.81;;;2.4;;
77748;SDS011;66938;52.084;5.228;2024-02-23T00:21:51;8.81;;;2.0;;
77748;SDS011;66938;52.084;5.228;2024-02-23T00:23:27;11.0;;;1.8;;
77748;SDS011;66938;52.084;5.228;2024-02-23T00:26:40;11.5;;;2.1;;
77748;SDS011;66938;52.084;5.228;2024-02-23T00:28:16;11.8;;;1.8;;
77748;SDS011;66938;52.084;5.228;2024-02-23T00:29:53;9.6;;;1.9;;
77748;SDS011;66938;52.084;5.228;2024-02-23T00:33:05;8.71;;;1.8;;
77748;SDS011;66938;52.084;5.228;2024-02-23T00:34:41;11.3;;;2.1;;
77748;SDS011;66938;52.084;5.228;2024-02-23T00:36:17;10.1;;;2.5;;
77748;SDS011;66938;52.084;5.228;2024-02-23T00:37:53;10.5;;;1.8;;
77748;SDS011;66938;52.084;5.228;2024-02-23T00:41:05;7.9;;;2.1;;
77748;SDS011;66938;52.084;5.228;2024-02-23T00:42:41;9.9;;;2.0;;
77748;SDS011;66938;52.084;5.228;2024-02-23T00:44:17;10.8;;;2.31;;
77748;SDS011;66938;52.084;5.228;2024-02-23T00:47:33;9.71;;;2.0;;
77748;SDS011;66938;52.084;5.228;2024-02-23T00:49:09;11.3;;;2.31;;
77748;SDS011;66938;52.084;5.228;2024-02-23T00:50:45;11.6;;;2.0;;
77748;SDS011;66938;52.084;5.228;2024-02-23T00:53:57;8.6;;;1.6;;
77748;SDS011;66938;52.084;5.228;2024-02-23T00:55:33;8.5;;;2.1;;
77748;SDS011;66938;52.084;5.228;2024-02-23T00:57:09;6.6;;;1.4;;
77748;SDS011;66938;52.084;5.228;2024-02-23T00:58:45;8.71;;;1.6;;
77748;SDS011;66938;52.084;5.228;2024-02-23T01:01:58;5.11;;;1.3;;
77748;SDS011;66938;52.084;5.228;2024-02-23T01:03:34;6.5;;;1.4;;
77748;SDS011;66938;52.084;5.228;2024-02-23T01:05:10;8.4;;;1.6;;
77748;SDS011;66938;52.084;5.228;2024-02-23T01:08:25;5.5;;;1.3;;
77748;SDS011;66938;52.084;5.228;2024-02-23T01:10:00;4.5;;;1.0;;
77748;SDS011;66938;52.084;5.228;2024-02-23T01:11:36;6.2;;;1.11;;
77748;SDS011;66938;52.084;5.228;2024-02-23T01:14:48;5.2;;;0.9;;
77748;SDS011;66938;52.084;5.228;2024-02-23T01:16:25;4.91;;;0.8;;
77748;SDS011;66938;52.084;5.228;2024-02-23T01:18:01;5.4;;;1.11;;
77748;SDS011;66938;52.084;5.228;2024-02-23T01:21:17;6.6;;;1.4;;
77748;SDS011;66938;52.084;5.228;2024-02-23T01:22:53;8.4;;;1.4;;
77748;SDS011;66938;52.084;5.228;2024-02-23T01:24:29;6.0;;;1.0;;
77748;SDS011;66938;52.084;5.228;2024-02-23T01:26:05;5.6;;;1.2;;
77748;SDS011;66938;52.084;5.228;2024-02-23T01:29:17;6.6;;;1.5;;
77748;SDS011;66938;52.084;5.228;2024-02-23T01:30:54;5.6;;;0.9;;
77748;SDS011;66938;52.084;5.228;2024-02-23T01:32:30;6.8;;;1.0;;
77748;SDS011;66938;52.084;5.228;2024-02-23T01:35:42;6.2;;;1.3;;
77748;SDS011;66938;52.084;5.228;2024-02-23T01:37:18;6.9;;;1.2;;
77748;SDS011;66938;52.084;5.228;2024-02-23T01:38:54;9.1;;;1.8;;
77748;SDS011;66938;52.084;5.228;2024-02-23T01:42:07;5.7;;;1.2;;
77748;SDS011;66938;52.084;5.228;2024-02-23T01:43:43;7.1;;;1.0;;
77748;SDS011;66938;52.084;5.228;2024-02-23T01:45:20;8.4;;;1.4;;
77748;SDS011;66938;52.084;5.228;2024-02-23T01:46:56;11.1;;;1.5;;
77748;SDS011;66938;52.084;5.228;2024-02-23T01:50:12;8.31;;;1.6;;
77748;SDS011;66938;52.084;5.228;2024-02-23T01:51:48;8.9;;;1.6;;
77748;SDS011;66938;52.084;5.228;2024-02-23T01:53:24;7.3;;;1.5;;
77748;SDS011;66938;52.084;5.228;2024-02-23T01:56:37;8.4;;;1.5;;
77748;SDS011;66938;52.084;5.228;2024-02-23T01:58:13;8.31;;;1.5;;
77748;SDS011;66938;52.084;5.228;2024-02-23T01:59:50;8.31;;;1.5;;
77748;SDS011;66938;52.084;5.228;2024-02-23T02:03:03;6.7;;;1.5;;
77748;SDS011;66938;52.084;5.228;2024-02-23T02:04:40;7.3;;;1.6;;
77748;SDS011;66938;52.084;5.228;2024-02-23T02:06:16;8.0;;;1.4;;
77748;SDS011;66938;52.084;5.228;2024-02-23T02:07:52;8.2;;;2.0;;
77748;SDS011;66938;52.084;5.228;2024-02-23T02:11:08;8.71;;;1.7;;
77748;SDS011;66938;52.084;5.228;2024-02-23T02:12:44;8.9;;;1.4;;
77748;SDS011;66938;52.084;5.228;2024-02-23T02:14:20;7.8;;;1.6;;
77748;SDS011;66938;52.084;5.228;2024-02-23T02:17:37;8.31;;;1.6;;
77748;SDS011;66938;52.084;5.228;2024-02-23T02:19:13;8.31;;;1.6;;
77748;SDS011;66938;52.084;5.228;2024-02-23T02:20:50;8.9;;;1.5;;
77748;SDS011;66938;52.084;5.228;2024-02-23T02:22:27;11.1;;;2.0;;
77748;SDS011;66938;52.084;5.228;2024-02-23T02:25:40;7.8;;;1.8;;
77748;SDS011;66938;52.084;5.228;2024-02-23T02:27:16;6.6;;;1.6;;
77748;SDS011;66938;52.084;5.228;2024-02-23T02:28:52;7.4;;;1.8;;
77748;SDS011;66938;52.084;5.228;2024-02-23T02:32:05;8.31;;;1.8;;
77748;SDS011;66938;52.084;5.228;2024-02-23T02:33:42;8.81;;;2.0;;
77748;SDS011;66938;52.084;5.228;2024-02-23T02:35:18;7.7;;;1.9;;
77748;SDS011;66938;52.084;5.228;2024-02-23T02:38:30;8.1;;;1.8;;
77748;SDS011;66938;52.084;5.228;2024-02-23T02:40:07;8.31;;;1.6;;
77748;SDS011;66938;52.084;5.228;2024-02-23T02:41:43;8.81;;;1.5;;
77748;SDS011;66938;52.084;5.228;2024-02-23T02:44:55;9.31;;;1.7;;
77748;SDS011;66938;52.084;5.228;2024-02-23T02:46:31;7.3;;;1.7;;
77748;SDS011;66938;52.084;5.228;2024-02-23T02:48:08;6.9;;;1.5;;
77748;SDS011;66938;52.084;5.228;2024-02-23T02:49:44;7.9;;;1.9;;
77748;SDS011;66938;52.084;5.228;2024-02-23T02:52:56;8.81;;;1.5;;
77748;SDS011;66938;52.084;5.228;2024-02-23T02:54:32;8.2;;;1.7;;
77748;SDS011;66938;52.084;5.228;2024-02-23T02:56:08;9.71;;;2.0;;
77748;SDS011;66938;52.084;5.228;2024-02-23T02:59:23;8.1;;;1.9;;
77748;SDS011;66938;52.084;5.228;2024-02-23T03:00:59;8.2;;;2.1;;
77748;SDS011;66938;52.084;5.228;2024-02-23T03:02:35;8.2;;;2.1;;
77748;SDS011;66938;52.084;5.228;2024-02-23T03:05:48;10.6;;;2.1;;
77748;SDS011;66938;52.084;5.228;2024-02-23T03:07:24;8.5;;;1.9;;
77748;SDS011;66938;52.084;5.228;2024-02-23T03:09:00;9.5;;;1.7;;
77748;SDS011;66938;52.084;5.228;2024-02-23T03:10:36;11.3;;;2.1;;
77748;SDS011;66938;52.084;5.228;2024-02-23T03:13:48;10.9;;;2.0;;
77748;SDS011;66938;52.084;5.228;2024-02-23T03:15:24;7.2;;;2.0;;
77748;SDS011;66938;52.084;5.228;2024-02-23T03:17:00;9.4;;;2.21;;
77748;SDS011;66938;52.084;5.228;2024-02-23T03:20:15;7.8;;;1.7;;
77748;SDS011;66938;52.084;5.228;2024-02-23T03:21:52;9.9;;;2.21;;
77748;SDS011;66938;52.084;5.228;2024-02-23T03:23:28;9.1;;;2.21;;
77748;SDS011;66938;52.084;5.228;2024-02-23T03:26:41;8.1;;;1.9;;
77748;SDS011;66938;52.084;5.228;2024-02-23T03:28:17;8.81;;;2.31;;
77748;SDS011;66938;52.084;5.228;2024-02-23T03:29:53;8.9;;;2.21;;
77748;SDS011;66938;52.084;5.228;2024-02-23T03:31:32;10.8;;;1.9;;
77748;SDS011;66938;52.084;5.228;2024-02-23T03:34:45;6.9;;;1.5;;
77748;SDS011;66938;52.084;5.228;2024-02-23T03:36:21;10.4;;;2.0;;
77748;SDS011;66938;52.084;5.228;2024-02-23T03:37:57;9.31;;;1.8;;
77748;SDS011;66938;52.084;5.228;2024-02-23T03:41:09;8.71;;;2.31;;
77748;SDS011;66938;52.084;5.228;2024-02-23T03:42:48;6.7;;;1.6;;
77748;SDS011;66938;52.084;5.228;2024-02-23T03:44:24;9.1;;;2.1;;
77748;SDS011;66938;52.084;5.228;2024-02-23T03:47:36;6.8;;;1.8;;
77748;SDS011;66938;52.084;5.228;2024-02-23T03:49:13;7.0;;;2.0;;
77748;SDS011;66938;52.084;5.228;2024-02-23T03:50:50;8.6;;;1.7;;
77748;SDS011;66938;52.084;5.228;2024-02-23T03:52:26;11.1;;;2.21;;
77748;SDS011;66938;52.084;5.228;2024-02-23T03:55:41;6.9;;;1.9;;
77748;SDS011;66938;52.084;5.228;2024-02-23T03:57:16;8.81;;;2.31;;
77748;SDS011;66938;52.084;5.228;2024-02-23T03:58:52;7.7;;;1.8;;
77748;SDS011;66938;52.084;5.228;2024-02-23T04:02:04;9.31;;;1.9;;
77748;SDS011;66938;52.084;5.228;2024-02-23T04:03:40;9.81;;;2.1;;
77748;SDS011;66938;52.084;5.228;2024-02-23T04:05:17;5.7;;;1.7;;
77748;SDS011;66938;52.084;5.228;2024-02-23T04:08:29;8.81;;;1.9;;
77748;SDS011;66938;52.084;5.228;2024-02-23T04:10:05;5.9;;;1.4;;
77748;SDS011;66938;52.084;5.228;2024-02-23T04:11:42;7.5;;;1.8;;
77748;SDS011;66938;52.084;5.228;2024-02-23T04:13:18;6.8;;;1.4;;
77748;SDS011;66938;52.084;5.228;2024-02-23T04:16:31;6.2;;;1.4;;
77748;SDS011;66938;52.084;5.228;2024-02-23T04:18:07;6.0;;;1.9;;
77748;SDS011;66938;52.084;5.228;2024-02-23T04:19:43;8.9;;;1.6;;
77748;SDS011;66938;52.084;5.228;2024-02-23T04:22:56;6.9;;;1.7;;
77748;SDS011;66938;52.084;5.228;2024-02-23T04:24:32;7.1;;;1.8;;
77748;SDS011;66938;52.084;5.228;2024-02-23T04:26:08;7.9;;;2.21;;
77748;SDS011;66938;52.084;5.228;2024-02-23T04:29:20;10.6;;;2.0;;
77748;SDS011;66938;52.084;5.228;2024-02-23T04:30:55;8.1;;;1.8;;
77748;SDS011;66938;52.084;5.228;2024-02-23T04:32:32;6.1;;;1.9;;
77748;SDS011;66938;52.084;5.228;2024-02-23T04:35:44;8.4;;;1.9;;
77748;SDS011;66938;52.084;5.228;2024-02-23T04:37:20;9.5;;;1.9;;
77748;SDS011;66938;52.084;5.228;2024-02-23T04:38:59;6.4;;;1.9;;
77748;SDS011;66938;52.084;5.228;2024-02-23T04:40:35;8.81;;;2.21;;
77748;SDS011;66938;52.084;5.228;2024-02-23T04:43:47;9.5;;;2.0;;
77748;SDS011;66938;52.084;5.228;2024-02-23T04:45:23;8.5;;;2.0;;
77748;SDS011;66938;52.084;5.228;2024-02-23T04:46:59;8.4;;;1.9;;
77748;SDS011;66938;52.084;5.228;2024-02-23T04:50:12;7.7;;;1.7;;
77748;SDS011;66938;52.084;5.228;2024-02-23T04:51:48;6.0;;;1.8;;
77748;SDS011;66938;52.084;5.228;2024-02-23T04:53:24;11.0;;;2.6;;
77748;SDS011;66938;52.084;5.228;2024-02-23T04:56:36;8.71;;;2.0;;
77748;SDS011;66938;52.084;5.228;2024-02-23T04:58:12;9.81;;;1.8;;
77748;SDS011;66938;52.084;5.228;2024-02-23T04:59:48;9.1;;;2.0;;
77748;SDS011;66938;52.084;5.228;2024-02-23T05:01:24;6.3;;;1.7;;
77748;SDS011;66938;52.084;5.228;2024-02-23T05:04:40;9.31;;;2.0;;
77748;SDS011;66938;52.084;5.228;2024-02-23T05:06:16;10.3;;;2.9;;
77748;SDS011;66938;52.084;5.228;2024-02-23T05:07:52;8.0;;;1.9;;
77748;SDS011;66938;52.084;5.228;2024-02-23T05:11:04;6.4;;;1.9;;
77748;SDS011;66938;52.084;5.228;2024-02-23T05:12:40;5.9;;;1.9;;
77748;SDS011;66938;52.084;5.228;2024-02-23T05:14:16;9.71;;;2.21;;
77748;SDS011;66938;52.084;5.228;2024-02-23T05:17:31;8.1;;;2.31;;
77748;SDS011;66938;52.084;5.228;2024-02-23T05:19:07;7.3;;;1.6;;
77748;SDS011;66938;52.084;5.228;2024-02-23T05:20:43;7.0;;;1.7;;
77748;SDS011;66938;52.084;5.228;2024-02-23T05:22:19;6.9;;;2.21;;
77748;SDS011;66938;52.084;5.228;2024-02-23T05:25:31;8.31;;;2.1;;
77748;SDS011;66938;52.084;5.228;2024-02-23T05:27:07;6.4;;;2.1;;
77748;SDS011;66938;52.084;5.228;2024-02-23T05:28:43;7.5;;;2.21;;
77748;SDS011;66938;52.084;5.228;2024-02-23T05:31:56;6.1;;;2.0;;
77748;SDS011;66938;52.084;5.228;2024-02-23T05:33:32;7.4;;;2.21;;
77748;SDS011;66938;52.084;5.228;2024-02-23T05:35:08;8.4;;;2.31;;
77748;SDS011;66938;52.084;5.228;2024-02-23T05:38:22;6.1;;;2.0;;
77748;SDS011;66938;52.084;5.228;2024-02-23T05:40:04;6.9;;;2.21;;
77748;SDS011;66938;52.084;5.228;2024-02-23T05:41:40;10.7;;;2.6;;
77748;SDS011;66938;52.084;5.228;2024-02-23T05:43:16;8.5;;;2.8;;
77748;SDS011;66938;52.084;5.228;2024-02-23T05:46:28;9.5;;;2.8;;
77748;SDS011;66938;52.084;5.228;2024-02-23T05:48:04;11.2;;;3.2;;
77748;SDS011;66938;52.084;5.228;2024-02-23T05:49:40;8.9;;;2.9;;
77748;SDS011;66938;52.084;5.228;2024-02-23T05:52:52;8.5;;;3.1;;
77748;SDS011;66938;52.084;5.228;2024-02-23T05:54:28;8.5;;;3.0;;
77748;SDS011;66938;52.084;5.228;2024-02-23T05:56:05;7.5;;;2.7;;
77748;SDS011;66938;52.084;5.228;2024-02-23T05:59:17;7.1;;;2.7;;
77748;SDS011;66938;52.084;5.228;2024-02-23T06:00:53;6.0;;;2.4;;
77748;SDS011;66938;52.084;5.228;2024-02-23T06:02:29;7.5;;;3.1;;
77748;SDS011;66938;52.084;5.228;2024-02-23T06:05:41;7.2;;;3.0;;
77748;SDS011;66938;52.084;5.228;2024-02-23T06:07:17;7.4;;;2.7;;
77748;SDS011;66938;52.084;5.228;2024-02-23T06:08:53;7.1;;;2.5;;
77748;SDS011;66938;52.084;5.228;2024-02-23T06:10:29;7.3;;;2.7;;
77748;SDS011;66938;52.084;5.228;2024-02-23T06:13:47;7.8;;;2.5;;
77748;SDS011;66938;52.084;5.228;2024-02-23T06:15:24;6.3;;;2.4;;
77748;SDS011;66938;52.084;5.228;2024-02-23T06:17:00;6.5;;;2.6;;
77748;SDS011;66938;52.084;5.228;2024-02-23T06:20:12;8.5;;;2.6;;
77748;SDS011;66938;52.084;5.228;2024-02-23T06:21:48;6.8;;;2.8;;
77748;SDS011;66938;52.084;5.228;2024-02-23T06:23:24;6.3;;;2.21;;
77748;SDS011;66938;52.084;5.228;2024-02-23T06:26:38;8.4;;;2.5;;
77748;SDS011;66938;52.084;5.228;2024-02-23T06:28:14;5.2;;;2.5;;
77748;SDS011;66938;52.084;5.228;2024-02-23T06:29:52;8.0;;;2.1;;
77748;SDS011;66938;52.084;5.228;2024-02-23T06:31:28;7.2;;;2.1;;
77748;SDS011;66938;52.084;5.228;2024-02-23T06:34:41;8.1;;;2.21;;
77748;SDS011;66938;52.084;5.228;2024-02-23T06:36:17;6.4;;;2.0;;
77748;SDS011;66938;52.084;5.228;2024-02-23T06:37:54;5.9;;;1.8;;
77748;SDS011;66938;52.084;5.228;2024-02-23T06:41:06;6.4;;;2.21;;
77748;SDS011;66938;52.084;5.228;2024-02-23T06:42:42;9.1;;;2.4;;
77748;SDS011;66938;52.084;5.228;2024-02-23T06:44:18;6.8;;;2.1;;
77748;SDS011;66938;52.084;5.228;2024-02-23T06:47:33;6.0;;;1.9;;
77748;SDS011;66938;52.084;5.228;2024-02-23T06:49:09;6.2;;;1.9;;
77748;SDS011;66938;52.084;5.228;2024-02-23T06:50:46;5.11;;;1.8;;
77748;SDS011;66938;52.084;5.228;2024-02-23T06:52:22;5.3;;;1.9;;
77748;SDS011;66938;52.084;5.228;2024-02-23T06:55:34;7.7;;;2.1;;
77748;SDS011;66938;52.084;5.228;2024-02-23T06:57:10;5.5;;;2.1;;
77748;SDS011;66938;52.084;5.228;2024-02-23T06:58:46;4.7;;;1.8;;
77748;SDS011;66938;52.084;5.228;2024-02-23T07:01:58;6.1;;;1.6;;
77748;SDS011;66938;52.084;5.228;2024-02-23T07:03:34;8.9;;;1.9;;
77748;SDS011;66938;52.084;5.228;2024-02-23T07:05:10;6.8;;;1.9;;
77748;SDS011;66938;52.084;5.228;2024-02-23T07:08:23;5.3;;;1.4;;
77748;SDS011;66938;52.084;5.228;2024-02-23T07:09:59;6.6;;;1.7;;
77748;SDS011;66938;52.084;5.228;2024-02-23T07:11:35;6.1;;;1.7;;
77748;SDS011;66938;52.084;5.228;2024-02-23T07:13:11;5.7;;;1.7;;
77748;SDS011;66938;52.084;5.228;2024-02-23T07:16:24;7.0;;;1.7;;
77748;SDS011;66938;52.084;5.228;2024-02-23T07:18:00;8.2;;;1.8;;
77748;SDS011;66938;52.084;5.228;2024-02-23T07:19:36;7.8;;;1.9;;
77748;SDS011;66938;52.084;5.228;2024-02-23T07:22:49;7.5;;;1.6;;
77748;SDS011;66938;52.084;5.228;2024-02-23T07:24:25;7.5;;;1.5;;
77748;SDS011;66938;52.084;5.228;2024-02-23T07:26:01;7.7;;;1.8;;
77748;SDS011;66938;52.084;5.228;2024-02-23T07:29:13;5.3;;;1.3;;
77748;SDS011;66938;52.084;5.228;2024-02-23T07:30:49;7.4;;;1.6;;
77748;SDS011;66938;52.084;5.228;2024-02-23T07:32:25;6.9;;;1.6;;
77748;SDS011;66938;52.084;5.228;2024-02-23T07:35:38;6.5;;;1.5;;
77748;SDS011;66938;52.084;5.228;2024-02-23T07:37:13;6.8;;;1.8;;
77748;SDS011;66938;52.084;5.228;2024-02-23T07:38:50;7.2;;;1.4;;
77748;SDS011;66938;52.084;5.228;2024-02-23T07:40:26;6.7;;;1.8;;
77748;SDS011;66938;52.084;5.228;2024-02-23T07:43:38;6.2;;;1.3;;
77748;SDS011;66938;52.084;5.228;2024-02-23T07:45:14;5.6;;;1.6;;
77748;SDS011;66938;52.084;5.228;2024-02-23T07:48:26;8.0;;;2.0;;
77748;SDS011;66938;52.084;5.228;2024-02-23T07:50:02;5.6;;;1.5;;
77748;SDS011;66938;52.084;5.228;2024-02-23T07:51:38;7.4;;;1.9;;
77748;SDS011;66938;52.084;5.228;2024-02-23T07:54:51;6.8;;;1.5;;
77748;SDS011;66938;52.084;5.228;2024-02-23T07:56:27;10.0;;;1.7;;
77748;SDS011;66938;52.084;5.228;2024-02-23T07:58:04;4.3;;;1.4;;
77748;SDS011;66938;52.084;5.228;2024-02-23T08:01:16;6.5;;;1.7;;
77748;SDS011;66938;52.084;5.228;2024-02-23T08:02:52;6.4;;;1.7;;
77748;SDS011;66938;52.084;5.228;2024-02-23T08:04:28;7.0;;;1.9;;
77748;SDS011;66938;52.084;5.228;2024-02-23T08:06:07;5.5;;;1.6;;
77748;SDS011;66938;52.084;5.228;2024-02-23T08:09:20;7.7;;;1.7;;
77748;SDS011;66938;52.084;5.228;2024-02-23T08:10:56;7.3;;;1.7;;
77748;SDS011;66938;52.084;5.228;2024-02-23T08:12:32;6.0;;;1.9;;
77748;SDS011;66938;52.084;5.228;2024-02-23T08:15:45;7.1;;;2.0;;
77748;SDS011;66938;52.084;5.228;2024-02-23T08:17:24;5.4;;;1.7;;
77748;SDS011;66938;52.084;5.228;2024-02-23T08:19:00;8.9;;;1.9;;
77748;SDS011;66938;52.084;5.228;2024-02-23T08:22:12;8.6;;;2.21;;
77748;SDS011;66938;52.084;5.228;2024-02-23T08:23:48;8.2;;;1.9;;
77748;SDS011;66938;52.084;5.228;2024-02-23T08:25:25;7.3;;;1.9;;
77748;SDS011;66938;52.084;5.228;2024-02-23T08:27:01;7.6;;;2.0;;
77748;SDS011;66938;52.084;5.228;2024-02-23T08:30:14;6.2;;;1.7;;
77748;SDS011;66938;52.084;5.228;2024-02-23T08:31:50;8.9;;;2.1;;
77748;SDS011;66938;52.084;5.228;2024-02-23T08:33:27;6.4;;;2.0;;
77748;SDS011;66938;52.084;5.228;2024-02-23T08:36:40;6.5;;;1.8;;
77748;SDS011;66938;52.084;5.228;2024-02-23T08:38:17;8.9;;;1.8;;
77748;SDS011;66938;52.084;5.228;2024-02-23T08:39:54;7.9;;;2.1;;
77748;SDS011;66938;52.084;5.228;2024-02-23T08:43:06;8.5;;;2.21;;
77748;SDS011;66938;52.084;5.228;2024-02-23T08:44:42;7.8;;;1.9;;
77748;SDS011;66938;52.084;5.228;2024-02-23T08:46:18;7.5;;;2.1;;
77748;SDS011;66938;52.084;5.228;2024-02-23T08:47:54;8.5;;;1.7;;
77748;SDS011;66938;52.084;5.228;2024-02-23T08:51:06;10.9;;;2.5;;
77748;SDS011;66938;52.084;5.228;2024-02-23T08:52:43;9.81;;;2.5;;
77748;SDS011;66938;52.084;5.228;2024-02-23T08:54:20;6.9;;;1.5;;
77748;SDS011;66938;52.084;5.228;2024-02-23T08:57:33;8.5;;;1.9;;
77748;SDS011;66938;52.084;5.228;2024-02-23T08:59:09;7.6;;;2.0;;
77748;SDS011;66938;52.084;5.228;2024-02-23T09:00:45;10.7;;;2.31;;
77748;SDS011;66938;52.084;5.228;2024-02-23T09:03:57;7.9;;;1.9;;
77748;SDS011;66938;52.084;5.228;2024-02-23T09:05:34;8.81;;;2.0;;
77748;SDS011;66938;52.084;5.228;2024-02-23T09:07:10;7.4;;;1.8;;
77748;SDS011;66938;52.084;5.228;2024-02-23T09:08:47;8.2;;;2.0;;
77748;SDS011;66938;52.084;5.228;2024-02-23T09:11:59;8.0;;;1.7;;
77748;SDS011;66938;52.084;5.228;2024-02-23T09:13:35;7.8;;;1.8;;
77748;SDS011;66938;52.084;5.228;2024-02-23T09:15:11;6.4;;;1.5;;
77748;SDS011;66938;52.084;5.228;2024-02-23T09:18:24;9.0;;;2.31;;
77748;SDS011;66938;52.084;5.228;2024-02-23T09:20:01;6.6;;;1.7;;
77748;SDS011;66938;52.084;5.228;2024-02-23T09:21:37;6.2;;;1.8;;
77748;SDS011;66938;52.084;5.228;2024-02-23T09:24:51;6.2;;;1.5;;
77748;SDS011;66938;52.084;5.228;2024-02-23T09:26:26;7.1;;;1.7;;
77748;SDS011;66938;52.084;5.228;2024-02-23T09:28:03;7.3;;;1.8;;
77748;SDS011;66938;52.084;5.228;2024-02-23T09:29:40;6.3;;;1.8;;
77748;SDS011;66938;52.084;5.228;2024-02-23T09:32:53;7.4;;;2.0;;
77748;SDS011;66938;52.084;5.228;2024-02-23T09:34:29;9.9;;;1.9;;
77748;SDS011;66938;52.084;5.228;2024-02-23T09:36:05;9.21;;;2.0;;
77748;SDS011;66938;52.084;5.228;2024-02-23T09:39:19;10.8;;;2.1;;
77748;SDS011;66938;52.084;5.228;2024-02-23T09:40:55;6.4;;;1.6;;
77748;SDS011;66938;52.084;5.228;2024-02-23T09:42:32;8.9;;;2.21;;
77748;SDS011;66938;52.084;5.228;2024-02-23T09:45:46;5.5;;;2.0;;
77748;SDS011;66938;52.084;5.228;2024-02-23T09:47:23;7.4;;;1.7;;
77748;SDS011;66938;52.084;5.228;2024-02-23T09:49:01;6.4;;;1.6;;
77748;SDS011;66938;52.084;5.228;2024-02-23T09:50:38;7.4;;;1.6;;
77748;SDS011;66938;52.084;5.228;2024-02-23T09:53:56;5.7;;;1.4;;
77748;SDS011;66938;52.084;5.228;2024-02-23T09:55:33;6.1;;;1.5;;
77748;SDS011;66938;52.084;5.228;2024-02-23T09:57:10;5.11;;;1.6;;
77748;SDS011;66938;52.084;5.228;2024-02-23T10:00:26;6.9;;;1.6;;
77748;SDS011;66938;52.084;5.228;2024-02-23T10:02:07;5.6;;;1.4;;
77748;SDS011;66938;52.084;5.228;2024-02-23T10:03:45;7.5;;;1.7;;
77748;SDS011;66938;52.084;5.228;2024-02-23T10:05:23;4.61;;;1.4;;
77748;SDS011;66938;52.084;5.228;2024-02-23T10:08:42;6.7;;;1.8;;
77748;SDS011;66938;52.084;5.228;2024-02-23T10:10:23;5.5;;;1.8;;
77748;SDS011;66938;52.084;5.228;2024-02-23T10:12:01;4.2;;;1.4;;
77748;SDS011;66938;52.084;5.228;2024-02-23T10:13:39;6.1;;;1.5;;
77748;SDS011;66938;52.084;5.228;2024-02-23T10:16:53;5.8;;;1.5;;
77748;SDS011;66938;52.084;5.228;2024-02-23T10:18:28;7.5;;;1.6;;
77748;SDS011;66938;52.084;5.228;2024-02-23T10:20:05;6.3;;;1.5;;
77748;SDS011;66938;52.084;5.228;2024-02-23T10:23:19;5.3;;;1.4;;
77748;SDS011;66938;52.084;5.228;2024-02-23T10:24:55;7.3;;;1.6;;
77748;SDS011;66938;52.084;5.228;2024-02-23T10:26:31;5.0;;;1.6;;
77748;SDS011;66938;52.084;5.228;2024-02-23T10:29:44;6.2;;;1.6;;
77748;SDS011;66938;52.084;5.228;2024-02-23T10:31:20;6.2;;;1.6;;
77748;SDS011;66938;52.084;5.228;2024-02-23T10:32:57;7.4;;;1.7;;
77748;SDS011;66938;52.084;5.228;2024-02-23T10:34:35;5.9;;;1.6;;
77748;SDS011;66938;52.084;5.228;2024-02-23T10:37:53;4.3;;;1.3;;
77748;SDS011;66938;52.084;5.228;2024-02-23T10:39:30;5.6;;;1.4;;
77748;SDS011;66938;52.084;5.228;2024-02-23T10:41:06;6.2;;;1.7;;
77748;SDS011;66938;52.084;5.228;2024-02-23T10:44:24;6.5;;;1.9;;
77748;SDS011;66938;52.084;5.228;2024-02-23T10:46:04;7.9;;;1.6;;
77748;SDS011;66938;52.084;5.228;2024-02-23T10:47:41;6.3;;;1.9;;
77748;SDS011;66938;52.084;5.228;2024-02-23T10:49:18;4.7;;;1.6;;
77748;SDS011;66938;52.084;5.228;2024-02-23T10:52:32;7.0;;;1.7;;
77748;SDS011;66938;52.084;5.228;2024-02-23T10:54:10;4.3;;;1.6;;
77748;SDS011;66938;52.084;5.228;2024-02-23T10:55:51;5.4;;;1.6;;
77748;SDS011;66938;52.084;5.228;2024-02-23T10:57:32;5.3;;;1.6;;
77748;SDS011;66938;52.084;5.228;2024-02-23T11:00:46;6.6;;;1.7;;
77748;SDS011;66938;52.084;5.228;2024-02-23T11:02:22;7.7;;;1.8;;
77748;SDS011;66938;52.084;5.228;2024-02-23T11:04:03;7.2;;;1.7;;
77748;SDS011;66938;52.084;5.228;2024-02-23T11:07:18;5.8;;;1.8;;
77748;SDS011;66938;52.084;5.228;2024-02-23T11:09:04;6.0;;;1.5;;
77748;SDS011;66938;52.084;5.228;2024-02-23T11:10:41;5.4;;;1.6;;
77748;SDS011;66938;52.084;5.228;2024-02-23T11:12:22;6.3;;;1.8;;
77748;SDS011;66938;52.084;5.228;2024-02-23T11:15:41;6.0;;;2.21;;
77748;SDS011;66938;52.084;5.228;2024-02-23T11:17:19;6.6;;;1.9;;
77748;SDS011;66938;52.084;5.228;2024-02-23T11:19:03;4.61;;;1.8;;
77748;SDS011;66938;52.084;5.228;2024-02-23T11:20:41;5.5;;;1.8;;
77748;SDS011;66938;52.084;5.228;2024-02-23T11:24:02;4.8;;;1.7;;
77748;SDS011;66938;52.084;5.228;2024-02-23T11:25:40;6.4;;;1.8;;
77748;SDS011;66938;52.084;5.228;2024-02-23T11:27:16;5.2;;;1.4;;
77748;SDS011;66938;52.084;5.228;2024-02-23T11:30:31;6.1;;;1.7;;
77748;SDS011;66938;52.084;5.228;2024-02-23T11:32:12;7.2;;;2.1;;
77748;SDS011;66938;52.084;5.228;2024-02-23T11:33:49;5.0;;;2.21;;
77748;SDS011;66938;52.084;5.228;2024-02-23T11:35:26;5.5;;;1.9;;
77748;SDS011;66938;52.084;5.228;2024-02-23T11:38:45;5.4;;;1.7;;
77748;SDS011;66938;52.084;5.228;2024-02-23T11:40:22;6.9;;;1.7;;
77748;SDS011;66938;52.084;5.228;2024-02-23T11:41:58;5.4;;;1.9;;
77748;SDS011;66938;52.084;5.228;2024-02-23T11:45:11;4.41;;;1.6;;
77748;SDS011;66938;52.084;5.228;2024-02-23T11:46:47;5.11;;;1.5;;
77748;SDS011;66938;52.084;5.228;2024-02-23T11:48:23;6.9;;;1.9;;
77748;SDS011;66938;52.084;5.228;2024-02-23T11:49:59;4.91;;;1.5;;
77748;SDS011;66938;52.084;5.228;2024-02-23T11:53:14;6.1;;;1.8;;
77748;SDS011;66938;52.084;5.228;2024-02-23T11:54:52;5.4;;;1.8;;
77748;SDS011;66938;52.084;5.228;2024-02-23T11:56:29;5.8;;;1.8;;
77748;SDS011;66938;52.084;5.228;2024-02-23T11:59:42;5.9;;;2.0;;
77748;SDS011;66938;52.084;5.228;2024-02-23T12:01:18;5.9;;;2.0;;
77748;SDS011;66938;52.084;5.228;2024-02-23T12:02:54;5.4;;;1.6;;
77748;SDS011;66938;52.084;5.228;2024-02-23T12:04:30;5.9;;;1.7;;
77748;SDS011;66938;52.084;5.228;2024-02-23T12:07:43;6.5;;;1.7;;
77748;SDS011;66938;52.084;5.228;2024-02-23T12:09:19;8.2;;;1.7;;
77748;SDS011;66938;52.084;5.228;2024-02-23T12:10:56;5.9;;;1.6;;
77748;SDS011;66938;52.084;5.228;2024-02-23T12:14:12;5.0;;;1.5;;
77748;SDS011;66938;52.084;5.228;2024-02-23T12:15:51;6.2;;;1.7;;
77748;SDS011;66938;52.084;5.228;2024-02-23T12:17:29;6.2;;;1.7;;
77748;SDS011;66938;52.084;5.228;2024-02-23T12:20:46;6.9;;;1.8;;
77748;SDS011;66938;52.084;5.228;2024-02-23T12:22:24;5.7;;;1.6;;
77748;SDS011;66938;52.084;5.228;2024-02-23T12:24:03;4.1;;;1.3;;
77748;SDS011;66938;52.084;5.228;2024-02-23T12:25:41;4.41;;;1.3;;
77748;SDS011;66938;52.084;5.228;2024-02-23T12:29:05;6.1;;;1.3;;
77748;SDS011;66938;52.084;5.228;2024-02-23T12:30:42;7.0;;;1.8;;
77748;SDS011;66938;52.084;5.228;2024-02-23T12:32:19;6.3;;;1.8;;
77748;SDS011;66938;52.084;5.228;2024-02-23T12:33:56;4.0;;;1.4;;
77748;SDS011;66938;52.084;5.228;2024-02-23T12:37:10;4.8;;;1.7;;
77748;SDS011;66938;52.084;5.228;2024-02-23T12:38:47;5.7;;;1.6;;
77748;SDS011;66938;52.084;5.228;2024-02-23T12:40:23;5.2;;;1.4;;
77748;SDS011;66938;52.084;5.228;2024-02-23T12:43:36;6.4;;;1.6;;
77748;SDS011;66938;52.084;5.228;2024-02-23T12:45:12;6.9;;;1.7;;
77748;SDS011;66938;52.084;5.228;2024-02-23T12:46:48;6.6;;;1.5;;
77748;SDS011;66938;52.084;5.228;2024-02-23T12:48:24;6.3;;;1.4;;
77748;SDS011;66938;52.084;5.228;2024-02-23T12:51:36;4.5;;;1.4;;
77748;SDS011;66938;52.084;5.228;2024-02-23T12:53:29;6.0;;;1.5;;
77748;SDS011;66938;52.084;5.228;2024-02-23T12:55:07;3.9;;;1.4;;
77748;SDS011;66938;52.084;5.228;2024-02-23T12:58:21;3.7;;;1.3;;